createdAt,value
2019-05-23T00:00:13.167Z,98.13
2019-05-23T00:01:13.261Z,98.22
2019-05-23T00:02:13.352Z,98.03
2019-05-23T00:03:13.475Z,97.84
2019-05-23T00:04:13.525Z,97.65
2019-05-23T00:05:13.616Z,97.27
2019-05-23T00:06:13.718Z,97.55
2019-05-23T00:07:13.817Z,97.17
2019-05-23T00:08:13.892Z,98.13
2019-05-23T00:09:14.019Z,97.36
2019-05-23T00:10:14.080Z,97.46
2019-05-23T00:11:14.166Z,97.55
2019-05-23T00:12:14.258Z,98.22
2019-05-23T00:13:14.353Z,97.93
2019-05-23T00:14:14.455Z,98.60
2019-05-23T00:15:14.565Z,98.50
2019-05-23T00:16:14.642Z,98.41
2019-05-23T00:17:14.747Z,98.13
2019-05-23T00:18:14.841Z,97.27
2019-05-23T00:19:14.922Z,98.03
2019-05-23T00:20:15.013Z,97.74
2019-05-23T00:21:15.104Z,97.74
2019-05-23T00:22:15.195Z,97.27
2019-05-23T00:23:15.284Z,97.17
2019-05-23T00:24:15.377Z,97.27
2019-05-23T00:25:15.473Z,97.84
2019-05-23T00:26:15.566Z,97.65
2019-05-23T00:27:15.659Z,97.65
2019-05-23T00:28:15.770Z,97.84
2019-05-23T00:29:15.866Z,97.55
2019-05-23T00:30:15.990Z,97.55
2019-05-23T00:31:16.043Z,97.74
2019-05-23T00:32:16.134Z,97.65
2019-05-23T00:33:16.225Z,97.55
2019-05-23T00:34:16.316Z,97.55
2019-05-23T00:35:16.408Z,97.36
2019-05-23T00:36:16.504Z,97.55
2019-05-23T00:37:16.587Z,97.55
2019-05-23T00:38:16.680Z,98.13
2019-05-23T00:39:16.770Z,98.13
2019-05-23T00:40:16.860Z,98.13
2019-05-23T00:41:16.948Z,98.03
2019-05-23T00:42:17.039Z,97.55
2019-05-23T00:43:17.133Z,97.93
2019-05-23T00:44:17.226Z,98.41
2019-05-23T00:45:17.313Z,98.22
2019-05-23T00:46:17.406Z,98.69
2019-05-23T00:47:17.500Z,98.74
2019-05-23T00:48:17.590Z,99.22
2019-05-23T00:49:17.681Z,98.98
2019-05-23T00:50:17.771Z,99.17
2019-05-23T00:51:17.878Z,99.17
2019-05-23T00:52:17.969Z,98.98
2019-05-23T00:53:18.058Z,98.69
2019-05-23T00:54:18.144Z,98.69
2019-05-23T00:55:18.234Z,98.13
2019-05-23T00:56:18.345Z,98.60
2019-05-23T00:57:18.417Z,97.84
2019-05-23T00:58:18.501Z,98.41
2019-05-23T00:59:26.714Z,97.65
2019-05-23T01:00:18.668Z,97.74
2019-05-23T01:01:18.758Z,97.46
2019-05-23T01:02:18.848Z,97.60
2019-05-23T01:03:18.966Z,97.36
2019-05-23T01:04:19.030Z,97.27
2019-05-23T01:05:19.120Z,97.17
2019-05-23T01:06:19.224Z,97.65
2019-05-23T01:07:19.310Z,97.36
2019-05-23T01:08:19.407Z,98.27
2019-05-23T01:09:19.499Z,97.74
2019-05-23T01:10:19.585Z,97.74
2019-05-23T01:11:19.674Z,97.93
2019-05-23T01:12:19.768Z,97.84
2019-05-23T01:13:19.859Z,97.65
2019-05-23T01:14:19.955Z,97.93
2019-05-23T01:15:20.041Z,97.79
2019-05-23T01:16:20.136Z,98.03
2019-05-23T01:17:20.224Z,97.36
2019-05-23T01:18:20.316Z,97.36
2019-05-23T01:19:20.410Z,96.98
2019-05-23T01:20:20.495Z,96.70
2019-05-23T01:21:20.588Z,96.41
2019-05-23T01:22:20.677Z,96.98
2019-05-23T01:23:20.767Z,95.98
2019-05-23T01:24:20.866Z,96.36
2019-05-23T01:25:20.948Z,96.94
2019-05-23T01:26:21.045Z,97.03
2019-05-23T01:27:21.133Z,96.84
2019-05-23T01:28:21.229Z,97.03
2019-05-23T01:29:21.318Z,97.31
2019-05-23T01:30:21.407Z,96.79
2019-05-23T01:31:21.913Z,96.65
2019-05-23T01:32:21.592Z,97.03
2019-05-23T01:33:21.684Z,97.03
2019-05-23T01:34:21.772Z,96.74
2019-05-23T01:35:21.859Z,97.03
2019-05-23T01:36:21.946Z,97.13
2019-05-23T01:37:22.041Z,97.79
2019-05-23T01:38:22.132Z,97.22
2019-05-23T01:39:22.225Z,97.69
2019-05-23T01:40:22.315Z,97.69
2019-05-23T01:41:22.406Z,97.41
2019-05-23T01:42:22.498Z,97.31
2019-05-23T01:43:22.588Z,97.03
2019-05-23T01:44:22.677Z,96.94
2019-05-23T01:45:22.776Z,96.84
2019-05-23T01:46:22.876Z,96.84
2019-05-23T01:47:22.966Z,97.13
2019-05-23T01:48:23.056Z,97.03
2019-05-23T01:49:23.147Z,96.94
2019-05-23T01:50:23.249Z,96.46
2019-05-23T01:51:23.331Z,97.03
2019-05-23T01:52:23.422Z,97.13
2019-05-23T01:53:23.516Z,97.41
2019-05-23T01:54:23.604Z,97.22
2019-05-23T01:55:23.694Z,97.60
2019-05-23T01:56:23.781Z,97.31
2019-05-23T01:57:23.874Z,97.60
2019-05-23T01:58:23.965Z,97.60
2019-05-23T01:59:24.055Z,97.22
2019-05-23T02:00:24.146Z,97.60
2019-05-23T02:01:24.232Z,98.08
2019-05-23T02:02:24.316Z,98.08
2019-05-23T02:03:24.408Z,97.98
2019-05-23T02:04:24.499Z,97.98
2019-05-23T02:05:24.596Z,98.08
2019-05-23T02:06:24.700Z,97.60
2019-05-23T02:07:24.781Z,98.08
2019-05-23T02:08:24.872Z,97.98
2019-05-23T02:09:24.962Z,97.79
2019-05-23T02:10:25.051Z,97.79
2019-05-23T02:11:25.138Z,97.98
2019-05-23T02:12:25.227Z,97.88
2019-05-23T02:13:25.321Z,98.36
2019-05-23T02:14:25.409Z,98.36
2019-05-23T02:15:25.503Z,97.41
2019-05-23T02:16:25.589Z,96.94
2019-05-23T02:17:25.680Z,96.94
2019-05-23T02:18:25.772Z,96.94
2019-05-23T02:19:25.857Z,96.84
2019-05-23T02:20:25.995Z,96.94
2019-05-23T02:21:26.038Z,96.74
2019-05-23T02:22:26.127Z,96.26
2019-05-23T02:23:26.215Z,95.51
2019-05-23T02:24:26.309Z,95.51
2019-05-23T02:25:26.400Z,95.41
2019-05-23T02:26:26.488Z,95.94
2019-05-23T02:27:26.578Z,95.98
2019-05-23T02:28:26.665Z,96.79
2019-05-23T02:29:26.767Z,96.55
2019-05-23T02:30:36.030Z,96.74
2019-05-23T02:31:26.948Z,96.65
2019-05-23T02:32:27.039Z,96.60
2019-05-23T02:33:27.135Z,96.41
2019-05-23T02:34:27.220Z,96.50
2019-05-23T02:35:27.311Z,97.08
2019-05-23T02:36:27.401Z,97.55
2019-05-23T02:37:27.494Z,97.41
2019-05-23T02:38:27.577Z,97.41
2019-05-23T02:39:27.670Z,97.60
2019-05-23T02:40:27.757Z,97.69
2019-05-23T02:41:27.846Z,97.22
2019-05-23T02:42:27.943Z,96.94
2019-05-23T02:43:28.030Z,96.84
2019-05-23T02:44:28.116Z,96.65
2019-05-23T02:45:28.204Z,96.46
2019-05-23T02:46:28.295Z,96.46
2019-05-23T02:47:28.387Z,96.46
2019-05-23T02:48:28.479Z,96.84
2019-05-23T02:49:28.570Z,96.65
2019-05-23T02:50:28.659Z,96.36
2019-05-23T02:51:28.751Z,96.17
2019-05-23T02:52:28.844Z,96.08
2019-05-23T02:53:28.936Z,96.74
2019-05-23T02:54:29.024Z,96.17
2019-05-23T02:55:29.114Z,95.98
2019-05-23T02:56:29.206Z,96.08
2019-05-23T02:57:29.302Z,95.70
2019-05-23T02:58:29.391Z,95.98
2019-05-23T02:59:29.480Z,95.79
2019-05-23T03:00:29.569Z,95.12
2019-05-23T03:01:29.678Z,95.51
2019-05-23T03:02:29.751Z,95.41
2019-05-23T03:03:29.851Z,95.32
2019-05-23T03:04:29.933Z,95.60
2019-05-23T03:05:30.028Z,95.60
2019-05-23T03:06:30.144Z,96.08
2019-05-23T03:07:30.210Z,95.70
2019-05-23T03:08:30.300Z,95.70
2019-05-23T03:09:30.392Z,95.70
2019-05-23T03:10:30.479Z,95.79
2019-05-23T03:11:30.569Z,96.17
2019-05-23T03:12:30.662Z,96.55
2019-05-23T03:13:30.757Z,96.26
2019-05-23T03:14:30.847Z,95.89
2019-05-23T03:15:30.935Z,95.56
2019-05-23T03:16:31.021Z,95.27
2019-05-23T03:17:31.113Z,95.46
2019-05-23T03:18:34.457Z,95.08
2019-05-23T03:19:31.299Z,94.32
2019-05-23T03:20:31.390Z,94.65
2019-05-23T03:21:31.482Z,94.60
2019-05-23T03:22:31.631Z,94.70
2019-05-23T03:23:31.670Z,94.03
2019-05-23T03:24:31.755Z,94.51
2019-05-23T03:25:31.852Z,94.32
2019-05-23T03:26:31.942Z,94.32
2019-05-23T03:27:32.044Z,94.98
2019-05-23T03:28:32.123Z,94.89
2019-05-23T03:29:32.215Z,94.79
2019-05-23T03:30:32.304Z,94.70
2019-05-23T03:31:33.174Z,94.79
2019-05-23T03:32:38.056Z,95.08
2019-05-23T03:33:32.596Z,94.79
2019-05-23T03:34:32.673Z,95.46
2019-05-23T03:35:32.774Z,95.94
2019-05-23T03:36:32.855Z,95.75
2019-05-23T03:37:32.945Z,96.60
2019-05-23T03:38:33.036Z,96.51
2019-05-23T03:39:33.139Z,96.51
2019-05-23T03:40:33.218Z,96.41
2019-05-23T03:41:33.325Z,96.60
2019-05-23T03:42:33.400Z,96.79
2019-05-23T03:43:33.493Z,96.70
2019-05-23T03:44:33.726Z,96.60
2019-05-23T03:45:33.682Z,96.51
2019-05-23T03:46:33.775Z,96.98
2019-05-23T03:47:33.857Z,96.79
2019-05-23T03:48:33.947Z,97.08
2019-05-23T03:49:34.038Z,96.51
2019-05-23T03:50:34.133Z,96.41
2019-05-23T03:51:34.224Z,96.79
2019-05-23T03:52:34.317Z,97.08
2019-05-23T03:53:34.415Z,96.79
2019-05-23T03:54:34.502Z,96.98
2019-05-23T03:55:34.592Z,97.36
2019-05-23T03:56:34.682Z,97.27
2019-05-23T03:57:34.779Z,97.46
2019-05-23T03:58:34.862Z,97.08
2019-05-23T03:59:34.955Z,97.65
2019-05-23T04:00:35.044Z,97.55
2019-05-23T04:01:47.182Z,98.13
2019-05-23T04:02:35.222Z,98.13
2019-05-23T04:03:39.709Z,98.79
2019-05-23T04:04:35.407Z,98.88
2019-05-23T04:05:35.500Z,99.36
2019-05-23T04:06:35.589Z,99.74
2019-05-23T04:07:35.685Z,99.55
2019-05-23T04:08:35.769Z,99.65
2019-05-23T04:09:35.862Z,99.65
2019-05-23T04:10:35.955Z,99.65
2019-05-23T04:11:36.054Z,99.65
2019-05-23T04:12:36.146Z,99.74
2019-05-23T04:13:36.241Z,99.99
2019-05-23T04:14:36.327Z,99.93
2019-05-23T04:15:36.422Z,99.99
2019-05-23T04:16:36.511Z,99.74
2019-05-23T04:17:36.603Z,99.99
2019-05-23T04:18:36.696Z,99.99
2019-05-23T04:19:36.785Z,99.99
2019-05-23T04:20:36.876Z,99.99
2019-05-23T04:21:36.973Z,99.99
2019-05-23T04:22:37.065Z,99.99
2019-05-23T04:23:37.152Z,99.99
2019-05-23T04:24:37.239Z,99.99
2019-05-23T04:25:37.339Z,99.84
2019-05-23T04:26:37.432Z,99.99
2019-05-23T04:27:37.526Z,99.99
2019-05-23T04:28:37.609Z,99.93
2019-05-23T04:29:37.703Z,99.79
2019-05-23T04:30:37.799Z,99.99
2019-05-23T04:31:37.888Z,99.99
2019-05-23T04:32:37.980Z,99.99
2019-05-23T04:33:38.073Z,99.79
2019-05-23T04:34:38.164Z,99.99
2019-05-23T04:35:38.253Z,99.99
2019-05-23T04:36:38.347Z,99.99
2019-05-23T04:37:38.439Z,99.51
2019-05-23T04:38:38.530Z,99.69
2019-05-23T04:39:38.623Z,99.89
2019-05-23T04:40:38.713Z,99.79
2019-05-23T04:41:38.805Z,99.98
2019-05-23T04:42:38.903Z,99.93
2019-05-23T04:43:38.989Z,99.13
2019-05-23T04:44:43.729Z,98.65
2019-05-23T04:45:39.175Z,98.84
2019-05-23T04:46:39.269Z,99.03
2019-05-23T04:47:39.361Z,99.41
2019-05-23T04:48:39.452Z,98.84
2019-05-23T04:49:39.541Z,98.94
2019-05-23T04:50:39.641Z,98.74
2019-05-23T04:51:39.728Z,98.27
2019-05-23T04:52:39.822Z,98.08
2019-05-23T04:53:39.910Z,98.18
2019-05-23T04:54:40.004Z,97.99
2019-05-23T04:55:40.094Z,98.08
2019-05-23T04:56:40.183Z,98.27
2019-05-23T04:57:40.274Z,98.27
2019-05-23T04:58:40.366Z,98.36
2019-05-23T04:59:40.462Z,98.18
2019-05-23T05:00:40.550Z,98.27
2019-05-23T05:01:40.711Z,98.27
2019-05-23T05:02:40.732Z,98.55
2019-05-23T05:03:40.835Z,98.65
2019-05-23T05:04:40.920Z,98.55
2019-05-23T05:05:41.092Z,98.65
2019-05-23T05:06:41.105Z,98.27
2019-05-23T05:07:41.196Z,98.74
2019-05-23T05:08:41.288Z,98.84
2019-05-23T05:09:41.385Z,98.65
2019-05-23T05:10:41.472Z,98.84
2019-05-23T05:11:41.562Z,98.94
2019-05-23T05:12:41.653Z,99.03
2019-05-23T05:13:41.751Z,98.65
2019-05-23T05:14:41.841Z,98.32
2019-05-23T05:15:41.932Z,98.99
2019-05-23T05:16:42.025Z,98.79
2019-05-23T05:17:42.120Z,98.70
2019-05-23T05:18:42.210Z,98.60
2019-05-23T05:19:42.305Z,98.22
2019-05-23T05:20:42.402Z,98.41
2019-05-23T05:21:42.491Z,97.56
2019-05-23T05:22:42.647Z,97.46
2019-05-23T05:23:42.679Z,97.08
2019-05-23T05:24:42.775Z,96.98
2019-05-23T05:25:42.868Z,97.17
2019-05-23T05:26:42.957Z,97.08
2019-05-23T05:27:43.055Z,97.17
2019-05-23T05:28:43.141Z,97.56
2019-05-23T05:29:43.226Z,97.46
2019-05-23T05:30:43.330Z,96.70
2019-05-23T05:31:43.413Z,96.51
2019-05-23T05:32:45.519Z,96.41
2019-05-23T05:33:43.594Z,96.03
2019-05-23T05:34:43.687Z,96.12
2019-05-23T05:35:43.782Z,96.41
2019-05-23T05:36:43.874Z,96.41
2019-05-23T05:37:43.963Z,96.32
2019-05-23T05:38:44.095Z,97.17
2019-05-23T05:39:44.175Z,96.65
2019-05-23T05:40:44.239Z,96.56
2019-05-23T05:41:44.332Z,95.98
2019-05-23T05:42:44.421Z,96.17
2019-05-23T05:43:44.529Z,96.08
2019-05-23T05:44:44.622Z,95.79
2019-05-23T05:45:44.716Z,95.41
2019-05-23T05:46:44.805Z,95.32
2019-05-23T05:47:44.905Z,95.12
2019-05-23T05:48:44.988Z,95.41
2019-05-23T05:49:45.090Z,95.27
2019-05-23T05:50:45.180Z,94.89
2019-05-23T05:51:45.269Z,94.22
2019-05-23T05:52:45.366Z,94.03
2019-05-23T05:53:45.456Z,93.27
2019-05-23T05:54:45.561Z,93.17
2019-05-23T05:55:45.645Z,92.26
2019-05-23T05:56:45.742Z,92.36
2019-05-23T05:57:45.833Z,90.93
2019-05-23T05:58:45.925Z,90.73
2019-05-23T05:59:46.029Z,89.88
2019-05-23T06:00:46.114Z,87.63
2019-05-23T06:01:46.205Z,86.87
2019-05-23T06:03:02.628Z,86.10
2019-05-23T06:03:46.412Z,85.48
2019-05-23T06:04:46.506Z,85.00
2019-05-23T06:05:46.607Z,85.29
2019-05-23T06:06:50.003Z,85.48
2019-05-23T06:07:46.785Z,84.81
2019-05-23T06:08:46.878Z,84.72
2019-05-23T06:09:46.983Z,84.38
2019-05-23T06:10:47.054Z,83.70
2019-05-23T06:11:47.149Z,83.86
2019-05-23T06:12:47.259Z,84.09
2019-05-23T06:13:47.334Z,84.19
2019-05-23T06:14:47.428Z,83.51
2019-05-23T06:15:47.543Z,83.33
2019-05-23T06:16:47.638Z,83.42
2019-05-23T06:17:47.742Z,82.60
2019-05-23T06:18:47.830Z,82.28
2019-05-23T06:19:48.057Z,82.37
2019-05-23T06:20:48.027Z,83.47
2019-05-23T06:21:48.114Z,84.14
2019-05-23T06:22:48.210Z,84.43
2019-05-23T06:23:48.297Z,84.91
2019-05-23T06:24:53.349Z,85.10
2019-05-23T06:25:48.495Z,85.33
2019-05-23T06:26:48.581Z,84.85
2019-05-23T06:27:48.675Z,84.95
2019-05-23T06:28:48.769Z,83.70
2019-05-23T06:29:48.863Z,83.46
2019-05-23T06:30:48.959Z,82.60
2019-05-23T06:31:49.052Z,82.22
2019-05-23T06:32:49.157Z,81.99
2019-05-23T06:33:49.250Z,82.70
2019-05-23T06:34:49.348Z,82.60
2019-05-23T06:35:49.429Z,82.70
2019-05-23T06:36:49.531Z,82.12
2019-05-23T06:37:49.626Z,81.93
2019-05-23T06:38:49.726Z,81.36
2019-05-23T06:39:49.815Z,81.26
2019-05-23T06:40:49.909Z,80.88
2019-05-23T06:41:50.003Z,80.98
2019-05-23T06:42:51.030Z,80.88
2019-05-23T06:43:50.181Z,80.63
2019-05-23T06:44:50.285Z,80.63
2019-05-23T06:45:50.370Z,79.87
2019-05-23T06:46:50.464Z,80.54
2019-05-23T06:47:50.567Z,79.96
2019-05-23T06:48:50.652Z,80.25
2019-05-23T06:49:50.755Z,80.44
2019-05-23T06:50:50.841Z,79.77
2019-05-23T06:51:50.937Z,80.06
2019-05-23T06:52:51.031Z,79.77
2019-05-23T06:53:51.128Z,80.06
2019-05-23T06:54:51.223Z,80.16
2019-05-23T06:55:51.322Z,79.87
2019-05-23T06:56:51.414Z,80.54
2019-05-23T06:57:51.506Z,80.92
2019-05-23T06:58:51.603Z,81.59
2019-05-23T06:59:51.694Z,81.49
2019-05-23T07:00:51.994Z,81.21
2019-05-23T07:01:51.878Z,80.73
2019-05-23T07:02:51.974Z,80.73
2019-05-23T07:03:52.080Z,81.11
2019-05-23T07:04:52.176Z,80.73
2019-05-23T07:05:52.270Z,80.58
2019-05-23T07:06:52.365Z,80.16
2019-05-23T07:07:52.475Z,80.00
2019-05-23T07:08:52.558Z,80.58
2019-05-23T07:09:52.650Z,80.38
2019-05-23T07:10:52.739Z,80.10
2019-05-23T07:11:52.840Z,80.10
2019-05-23T07:12:52.932Z,79.91
2019-05-23T07:13:53.027Z,80.10
2019-05-23T07:14:53.123Z,79.91
2019-05-23T07:15:53.217Z,80.77
2019-05-23T07:16:53.311Z,80.10
2019-05-23T07:17:53.406Z,80.29
2019-05-23T07:18:53.499Z,79.81
2019-05-23T07:19:53.595Z,79.81
2019-05-23T07:20:53.687Z,79.75
2019-05-23T07:21:53.786Z,79.95
2019-05-23T07:22:53.876Z,79.57
2019-05-23T07:23:53.977Z,79.57
2019-05-23T07:24:58.214Z,79.57
2019-05-23T07:25:54.157Z,79.75
2019-05-23T07:26:54.252Z,79.95
2019-05-23T07:27:54.349Z,79.37
2019-05-23T07:28:54.456Z,79.08
2019-05-23T07:29:54.543Z,78.42
2019-05-23T07:30:54.675Z,78.51
2019-05-23T07:31:54.733Z,78.32
2019-05-23T07:32:54.834Z,77.97
2019-05-23T07:34:01.565Z,77.97
2019-05-23T07:34:55.019Z,78.55
2019-05-23T07:35:55.118Z,78.27
2019-05-23T07:36:55.211Z,79.03
2019-05-23T07:37:55.326Z,78.07
2019-05-23T07:38:55.473Z,78.27
2019-05-23T07:39:55.501Z,78.49
2019-05-23T07:40:55.606Z,77.82
2019-05-23T07:41:55.699Z,78.11
2019-05-23T07:42:55.793Z,77.25
2019-05-23T07:43:55.890Z,77.25
2019-05-23T07:44:55.988Z,77.25
2019-05-23T07:45:56.086Z,76.86
2019-05-23T07:46:56.171Z,76.14
2019-05-23T07:47:56.273Z,75.85
2019-05-23T07:48:56.382Z,75.18
2019-05-23T07:49:56.460Z,74.41
2019-05-23T07:50:56.562Z,73.83
2019-05-23T07:51:56.655Z,73.83
2019-05-23T07:52:56.761Z,74.06
2019-05-23T07:53:56.845Z,74.54
2019-05-23T07:54:56.941Z,74.06
2019-05-23T07:55:57.036Z,74.06
2019-05-23T07:56:57.134Z,73.20
2019-05-23T07:57:57.230Z,73.87
2019-05-23T07:58:57.325Z,73.20
2019-05-23T07:59:57.424Z,73.10
2019-05-23T08:00:57.766Z,73.20
2019-05-23T08:01:58.431Z,73.87
2019-05-23T08:02:57.732Z,73.62
2019-05-23T08:03:57.832Z,73.04
2019-05-23T08:04:57.927Z,73.14
2019-05-23T08:05:58.025Z,71.98
2019-05-23T08:06:58.122Z,71.98
2019-05-23T08:07:58.285Z,72.37
2019-05-23T08:08:58.326Z,71.51
2019-05-23T08:09:58.423Z,71.41
2019-05-23T08:10:58.520Z,71.22
2019-05-23T08:11:58.617Z,71.06
2019-05-23T08:12:58.729Z,70.68
2019-05-23T08:13:58.814Z,70.68
2019-05-23T08:14:58.899Z,70.78
2019-05-23T08:15:59.003Z,70.29
2019-05-23T08:16:59.092Z,70.10
2019-05-23T08:17:59.211Z,70.29
2019-05-23T08:18:59.290Z,70.78
2019-05-23T08:19:59.388Z,71.35
2019-05-23T08:20:59.486Z,71.00
2019-05-23T08:21:59.585Z,70.62
2019-05-23T08:22:59.682Z,70.14
2019-05-23T08:23:59.798Z,70.14
2019-05-23T08:24:59.877Z,70.43
2019-05-23T08:25:59.973Z,70.07
2019-05-23T08:27:00.068Z,69.89
2019-05-23T08:28:00.169Z,68.83
2019-05-23T08:29:24.256Z,69.02
2019-05-23T08:30:02.394Z,69.02
2019-05-23T08:31:00.459Z,67.38
2019-05-23T08:32:00.568Z,67.00
2019-05-23T08:33:00.655Z,67.48
2019-05-23T08:34:00.751Z,67.58
2019-05-23T08:35:00.839Z,67.29
2019-05-23T08:36:00.935Z,67.38
2019-05-23T08:37:01.031Z,68.44
2019-05-23T08:38:01.136Z,67.00
2019-05-23T08:39:01.228Z,67.29
2019-05-23T08:40:01.490Z,67.10
2019-05-23T08:41:01.456Z,66.42
2019-05-23T08:42:01.541Z,66.46
2019-05-23T08:43:01.646Z,66.46
2019-05-23T08:44:01.743Z,66.55
2019-05-23T08:45:01.849Z,66.36
2019-05-23T08:46:01.937Z,66.55
2019-05-23T08:47:02.098Z,66.27
2019-05-23T08:48:02.134Z,66.27
2019-05-23T08:49:02.232Z,67.32
2019-05-23T08:50:02.330Z,66.36
2019-05-23T08:51:02.449Z,66.07
2019-05-23T08:52:02.503Z,67.13
2019-05-23T08:53:02.600Z,67.32
2019-05-23T08:54:02.756Z,66.74
2019-05-23T08:55:02.872Z,67.03
2019-05-23T08:56:03.617Z,67.26
2019-05-23T08:57:03.066Z,66.88
2019-05-23T08:58:03.142Z,65.63
2019-05-23T08:59:03.239Z,66.30
2019-05-23T09:00:03.333Z,66.30
2019-05-23T09:01:03.431Z,67.71
2019-05-23T09:02:03.529Z,67.07
2019-05-23T09:03:03.626Z,67.16
2019-05-23T09:04:03.722Z,66.30
2019-05-23T09:05:06.306Z,67.07
2019-05-23T09:06:03.914Z,67.16
2019-05-23T09:07:04.014Z,67.55
2019-05-23T09:08:04.112Z,67.07
2019-05-23T09:09:21.052Z,66.20
2019-05-23T09:10:04.325Z,65.85
2019-05-23T09:11:04.424Z,65.17
2019-05-23T09:12:04.522Z,65.66
2019-05-23T09:13:04.621Z,66.14
2019-05-23T09:14:04.720Z,65.37
2019-05-23T09:15:08.903Z,64.98
2019-05-23T09:16:04.973Z,64.25
2019-05-23T09:17:05.038Z,64.89
2019-05-23T09:18:05.136Z,65.08
2019-05-23T09:19:05.235Z,63.92
2019-05-23T09:20:05.368Z,64.92
2019-05-23T09:21:05.443Z,63.95
2019-05-23T09:22:05.548Z,63.47
2019-05-23T09:23:05.630Z,65.11
2019-05-23T09:24:05.746Z,65.30
2019-05-23T09:25:05.830Z,64.15
2019-05-23T09:26:05.933Z,63.95
2019-05-23T09:27:06.024Z,64.34
2019-05-23T09:28:06.134Z,63.57
2019-05-23T09:29:06.219Z,63.28
2019-05-23T09:30:06.321Z,63.12
2019-05-23T09:31:06.416Z,63.02
2019-05-23T09:32:06.523Z,63.41
2019-05-23T09:33:06.615Z,62.25
2019-05-23T09:34:06.715Z,62.25
2019-05-23T09:35:20.508Z,61.77
2019-05-23T09:36:06.931Z,61.48
2019-05-23T09:37:07.022Z,60.64
2019-05-23T09:38:07.129Z,61.51
2019-05-23T09:39:07.219Z,61.41
2019-05-23T09:40:07.316Z,60.83
2019-05-23T09:41:07.425Z,59.97
2019-05-23T09:42:07.518Z,60.10
2019-05-23T09:43:07.683Z,59.32
2019-05-23T09:44:07.742Z,60.10
2019-05-23T09:45:07.869Z,59.61
2019-05-23T09:46:07.966Z,58.58
2019-05-23T09:47:08.049Z,58.77
2019-05-23T09:48:08.152Z,59.64
2019-05-23T09:49:11.102Z,57.04
2019-05-23T09:50:08.356Z,56.29
2019-05-23T09:51:08.449Z,54.75
2019-05-23T09:52:09.147Z,54.27
2019-05-23T09:53:08.651Z,54.55
2019-05-23T09:54:08.749Z,53.69
2019-05-23T09:55:08.848Z,54.87
2019-05-23T09:56:08.987Z,54.29
2019-05-23T09:57:09.074Z,53.42
2019-05-23T09:58:09.162Z,52.45
2019-05-23T09:59:09.254Z,51.01
2019-05-23T10:00:09.384Z,51.97
2019-05-23T10:01:09.462Z,52.75
2019-05-23T10:02:09.558Z,51.78
2019-05-23T10:03:09.671Z,51.68
2019-05-23T10:04:09.783Z,50.79
2019-05-23T10:05:09.898Z,51.56
2019-05-23T10:06:10.002Z,50.98
2019-05-23T10:07:10.100Z,49.44
2019-05-23T10:08:10.200Z,49.32
2019-05-23T10:09:10.302Z,49.80
2019-05-23T10:10:10.401Z,49.41
2019-05-23T10:11:10.504Z,49.70
2019-05-23T10:12:10.601Z,50.38
2019-05-23T10:13:10.700Z,50.86
2019-05-23T10:14:10.806Z,50.86
2019-05-23T10:15:10.901Z,50.89
2019-05-23T10:16:11.011Z,51.37
2019-05-23T10:17:11.103Z,51.27
2019-05-23T10:18:11.257Z,51.37
2019-05-23T10:19:11.330Z,49.73
2019-05-23T10:20:11.413Z,48.97
2019-05-23T10:21:11.519Z,48.57
2019-05-23T10:22:11.616Z,48.79
2019-05-23T10:23:11.721Z,48.47
2019-05-23T10:24:11.900Z,48.59
2019-05-23T10:25:11.916Z,48.49
2019-05-23T10:26:12.026Z,48.11
2019-05-23T10:27:12.116Z,48.49
2019-05-23T10:28:12.253Z,49.65
2019-05-23T10:29:12.354Z,49.95
2019-05-23T10:30:12.461Z,52.55
2019-05-23T10:31:12.574Z,50.13
2019-05-23T10:32:12.665Z,50.91
2019-05-23T10:33:13.534Z,52.07
2019-05-23T10:34:12.851Z,51.87
2019-05-23T10:35:12.955Z,49.77
2019-05-23T10:36:13.054Z,48.61
2019-05-23T10:37:13.154Z,48.52
2019-05-23T10:38:13.264Z,48.81
2019-05-23T10:39:13.360Z,50.07
2019-05-23T10:40:13.460Z,49.77
2019-05-23T10:41:13.561Z,50.86
2019-05-23T10:42:13.662Z,50.86
2019-05-23T10:43:13.762Z,49.32
2019-05-23T10:44:13.863Z,48.93
2019-05-23T10:45:13.978Z,48.64
2019-05-23T10:46:14.073Z,48.64
2019-05-23T10:47:14.175Z,48.64
2019-05-23T10:48:14.273Z,47.77
2019-05-23T10:49:14.375Z,47.96
2019-05-23T10:50:14.479Z,47.74
2019-05-23T10:51:14.581Z,47.86
2019-05-23T10:52:14.680Z,47.86
2019-05-23T10:53:14.779Z,48.35
2019-05-23T10:54:14.878Z,48.47
2019-05-23T10:55:14.983Z,48.54
2019-05-23T10:56:20.053Z,47.77
2019-05-23T10:57:15.186Z,47.74
2019-05-23T10:58:15.285Z,49.90
2019-05-23T10:59:15.401Z,48.61
2019-05-23T11:00:15.491Z,48.71
2019-05-23T11:01:15.592Z,49.80
2019-05-23T11:02:15.692Z,50.28
2019-05-23T11:03:15.792Z,49.02
2019-05-23T11:04:15.900Z,48.74
2019-05-23T11:05:15.997Z,47.89
2019-05-23T11:06:17.032Z,48.18
2019-05-23T11:07:16.198Z,48.54
2019-05-23T11:08:16.305Z,48.64
2019-05-23T11:09:16.402Z,48.47
2019-05-23T11:10:16.503Z,48.76
2019-05-23T11:11:16.586Z,47.50
2019-05-23T11:12:16.686Z,47.50
2019-05-23T11:13:16.788Z,46.83
2019-05-23T11:14:16.914Z,47.24
2019-05-23T11:15:17.016Z,46.34
2019-05-23T11:16:17.184Z,46.44
2019-05-23T11:17:17.214Z,45.57
2019-05-23T11:18:17.320Z,46.44
2019-05-23T11:19:17.422Z,47.11
2019-05-23T11:20:17.525Z,47.09
2019-05-23T11:21:17.627Z,44.84
2019-05-23T11:22:17.737Z,45.62
2019-05-23T11:23:17.837Z,46.49
2019-05-23T11:24:17.933Z,48.13
2019-05-23T11:25:18.032Z,46.97
2019-05-23T11:26:18.140Z,46.37
2019-05-23T11:27:18.244Z,46.78
2019-05-23T11:28:18.343Z,47.45
2019-05-23T11:29:18.481Z,46.97
2019-05-23T11:30:18.543Z,46.97
2019-05-23T11:31:18.738Z,46.97
2019-05-23T11:32:20.150Z,46.78
2019-05-23T11:33:18.863Z,46.10
2019-05-23T11:34:19.052Z,46.08
2019-05-23T11:35:19.092Z,45.89
2019-05-23T11:36:33.678Z,45.50
2019-05-23T11:37:19.289Z,46.17
2019-05-23T11:38:19.391Z,46.68
2019-05-23T11:39:19.490Z,47.07
2019-05-23T11:40:19.599Z,44.92
2019-05-23T11:41:19.698Z,44.15
2019-05-23T11:42:19.794Z,44.36
2019-05-23T11:43:19.893Z,45.52
2019-05-23T11:44:19.989Z,46.20
2019-05-23T11:45:20.093Z,44.36
2019-05-23T11:46:20.201Z,42.91
2019-05-23T11:47:20.294Z,42.24
2019-05-23T11:48:20.396Z,41.54
2019-05-23T11:49:20.499Z,42.50
2019-05-23T11:50:20.598Z,42.70
2019-05-23T11:51:24.554Z,43.93
2019-05-23T11:52:20.807Z,44.43
2019-05-23T11:53:20.911Z,45.01
2019-05-23T11:54:21.013Z,44.94
2019-05-23T11:55:21.121Z,45.40
2019-05-23T11:56:21.216Z,45.62
2019-05-23T11:57:21.318Z,45.81
2019-05-23T11:58:21.420Z,44.92
2019-05-23T11:59:21.522Z,43.76
2019-05-23T12:00:21.647Z,45.01
2019-05-23T12:01:21.718Z,45.23
2019-05-23T12:02:21.820Z,45.01
2019-05-23T12:03:21.949Z,44.12
2019-05-23T12:04:22.052Z,45.48
2019-05-23T12:05:22.133Z,45.67
2019-05-23T12:06:25.794Z,45.38
2019-05-23T12:07:22.338Z,45.59
2019-05-23T12:08:22.446Z,46.47
2019-05-23T12:09:22.537Z,45.31
2019-05-23T12:10:22.854Z,45.57
2019-05-23T12:11:22.757Z,45.48
2019-05-23T12:12:22.855Z,45.00
2019-05-23T12:13:22.956Z,45.11
2019-05-23T12:14:23.058Z,46.17
2019-05-23T12:15:23.164Z,46.37
2019-05-23T12:16:23.264Z,45.11
2019-05-23T12:17:23.362Z,45.11
2019-05-23T12:18:23.457Z,44.46
2019-05-23T12:19:23.622Z,44.26
2019-05-23T12:20:23.660Z,45.06
2019-05-23T12:21:23.762Z,43.61
2019-05-23T12:22:23.860Z,41.58
2019-05-23T12:23:23.958Z,41.09
2019-05-23T12:24:24.058Z,41.09
2019-05-23T12:25:24.160Z,43.03
2019-05-23T12:26:24.258Z,44.40
2019-05-23T12:27:24.353Z,43.92
2019-05-23T12:28:24.456Z,43.15
2019-05-23T12:29:24.564Z,42.57
2019-05-23T12:30:24.657Z,42.40
2019-05-23T12:31:24.759Z,40.75
2019-05-23T12:32:24.872Z,38.91
2019-05-23T12:33:24.959Z,38.91
2019-05-23T12:34:25.121Z,38.83
2019-05-23T12:35:25.168Z,39.90
2019-05-23T12:36:25.267Z,40.17
2019-05-23T12:37:25.370Z,41.45
2019-05-23T12:38:25.589Z,41.25
2019-05-23T12:39:25.574Z,40.69
2019-05-23T12:40:25.675Z,39.72
2019-05-23T12:41:25.778Z,41.35
2019-05-23T12:42:25.887Z,40.00
2019-05-23T12:43:25.987Z,40.77
2019-05-23T12:44:26.109Z,42.68
2019-05-23T12:45:26.192Z,43.65
2019-05-23T12:46:26.293Z,43.96
2019-05-23T12:47:26.408Z,44.35
2019-05-23T12:48:26.500Z,42.80
2019-05-23T12:49:26.604Z,39.53
2019-05-23T12:50:26.709Z,38.13
2019-05-23T12:51:26.822Z,38.71
2019-05-23T12:52:26.918Z,39.86
2019-05-23T12:53:27.023Z,41.31